sensor_id;sensor_type;location;lat;lon;timestamp;P1;durP1;ratioP1;P2;durP2;ratioP2
71343;SDS011;59146;43.850;25.948;2024-03-23T00:54:22;14.88;;;9.85;;
71343;SDS011;59146;43.850;25.948;2024-03-23T00:56:47;12.75;;;8.68;;
71343;SDS011;59146;43.850;25.948;2024-03-23T00:59:13;11.65;;;8.20;;
71343;SDS011;59146;43.850;25.948;2024-03-23T01:01:39;12.45;;;8.20;;
71343;SDS011;59146;43.850;25.948;2024-03-23T01:04:04;11.45;;;7.85;;
71343;SDS011;59146;43.850;25.948;2024-03-23T01:06:30;11.65;;;8.27;;
71343;SDS011;59146;43.850;25.948;2024-03-23T01:08:55;15.05;;;8.93;;
71343;SDS011;59146;43.850;25.948;2024-03-23T01:11:21;14.65;;;8.35;;
71343;SDS011;59146;43.850;25.948;2024-03-23T01:13:46;11.88;;;8.00;;
71343;SDS011;59146;43.850;25.948;2024-03-23T01:16:12;14.32;;;8.18;;
71343;SDS011;59146;43.850;25.948;2024-03-23T01:18:37;13.15;;;7.75;;
71343;SDS011;59146;43.850;25.948;2024-03-23T01:21:03;11.88;;;7.78;;
71343;SDS011;59146;43.850;25.948;2024-03-23T01:23:29;11.02;;;8.07;;
71343;SDS011;59146;43.850;25.948;2024-03-23T01:25:54;10.50;;;7.53;;
71343;SDS011;59146;43.850;25.948;2024-03-23T01:28:20;12.63;;;8.07;;
71343;SDS011;59146;43.850;25.948;2024-03-23T01:30:46;11.07;;;7.90;;
71343;SDS011;59146;43.850;25.948;2024-03-23T01:33:12;10.90;;;7.28;;
71343;SDS011;59146;43.850;25.948;2024-03-23T01:35:38;11.32;;;8.43;;
71343;SDS011;59146;43.850;25.948;2024-03-23T01:38:03;15.70;;;8.80;;
71343;SDS011;59146;43.850;25.948;2024-03-23T01:40:29;13.85;;;8.45;;
71343;SDS011;59146;43.850;25.948;2024-03-23T01:45:23;12.00;;;8.38;;
71343;SDS011;59146;43.850;25.948;2024-03-23T01:47:52;11.85;;;8.15;;
71343;SDS011;59146;43.850;25.948;2024-03-23T01:50:18;12.98;;;8.48;;
71343;SDS011;59146;43.850;25.948;2024-03-23T01:52:45;15.13;;;9.13;;
71343;SDS011;59146;43.850;25.948;2024-03-23T01:55:11;14.38;;;8.85;;
71343;SDS011;59146;43.850;25.948;2024-03-23T01:57:37;15.00;;;10.02;;
71343;SDS011;59146;43.850;25.948;2024-03-23T02:00:03;10.93;;;8.40;;
71343;SDS011;59146;43.850;25.948;2024-03-23T02:02:29;12.57;;;8.95;;
71343;SDS011;59146;43.850;25.948;2024-03-23T02:04:54;14.15;;;9.20;;
71343;SDS011;59146;43.850;25.948;2024-03-23T02:07:20;10.57;;;7.65;;
71343;SDS011;59146;43.850;25.948;2024-03-23T02:09:45;11.52;;;8.55;;
71343;SDS011;59146;43.850;25.948;2024-03-23T02:12:11;10.65;;;7.90;;
71343;SDS011;59146;43.850;25.948;2024-03-23T02:14:36;12.48;;;7.82;;
71343;SDS011;59146;43.850;25.948;2024-03-23T02:17:02;11.73;;;7.30;;
71343;SDS011;59146;43.850;25.948;2024-03-23T02:19:28;13.63;;;7.70;;
71343;SDS011;59146;43.850;25.948;2024-03-23T02:21:53;12.18;;;7.70;;
71343;SDS011;59146;43.850;25.948;2024-03-23T02:24:19;10.27;;;7.65;;
71343;SDS011;59146;43.850;25.948;2024-03-23T02:26:44;12.52;;;8.63;;
71343;SDS011;59146;43.850;25.948;2024-03-23T02:29:11;12.20;;;7.97;;
71343;SDS011;59146;43.850;25.948;2024-03-23T02:31:36;12.80;;;8.75;;
71343;SDS011;59146;43.850;25.948;2024-03-23T02:34:02;12.80;;;8.27;;
71343;SDS011;59146;43.850;25.948;2024-03-23T02:36:28;12.25;;;8.48;;
71343;SDS011;59146;43.850;25.948;2024-03-23T02:38:55;13.40;;;8.50;;
71343;SDS011;59146;43.850;25.948;2024-03-23T02:41:21;14.35;;;7.97;;
71343;SDS011;59146;43.850;25.948;2024-03-23T02:43:51;13.43;;;8.65;;
71343;SDS011;59146;43.850;25.948;2024-03-23T02:46:17;40.95;;;9.45;;
71343;SDS011;59146;43.850;25.948;2024-03-23T02:48:42;13.35;;;8.30;;
71343;SDS011;59146;43.850;25.948;2024-03-23T02:51:08;11.20;;;7.72;;
71343;SDS011;59146;43.850;25.948;2024-03-23T02:53:34;12.63;;;9.00;;
71343;SDS011;59146;43.850;25.948;2024-03-23T02:55:59;14.60;;;9.32;;
71343;SDS011;59146;43.850;25.948;2024-03-23T02:58:25;17.67;;;8.68;;
71343;SDS011;59146;43.850;25.948;2024-03-23T03:00:51;22.10;;;9.82;;
71343;SDS011;59146;43.850;25.948;2024-03-23T03:03:16;14.70;;;9.23;;
71343;SDS011;59146;43.850;25.948;2024-03-23T03:05:42;14.63;;;9.15;;
71343;SDS011;59146;43.850;25.948;2024-03-23T03:08:08;14.95;;;8.40;;
71343;SDS011;59146;43.850;25.948;2024-03-23T03:10:33;15.57;;;9.82;;
71343;SDS011;59146;43.850;25.948;2024-03-23T03:13:01;12.82;;;8.43;;
71343;SDS011;59146;43.850;25.948;2024-03-23T03:15:27;11.93;;;8.38;;
71343;SDS011;59146;43.850;25.948;2024-03-23T03:17:53;11.45;;;8.40;;
71343;SDS011;59146;43.850;25.948;2024-03-23T03:20:18;12.82;;;8.32;;
71343;SDS011;59146;43.850;25.948;2024-03-23T03:22:44;12.80;;;7.43;;
71343;SDS011;59146;43.850;25.948;2024-03-23T03:25:09;11.43;;;8.27;;
71343;SDS011;59146;43.850;25.948;2024-03-23T03:27:35;12.93;;;7.72;;
71343;SDS011;59146;43.850;25.948;2024-03-23T03:30:01;11.75;;;8.68;;
71343;SDS011;59146;43.850;25.948;2024-03-23T03:32:31;11.68;;;7.97;;
71343;SDS011;59146;43.850;25.948;2024-03-23T03:34:57;13.50;;;7.93;;
71343;SDS011;59146;43.850;25.948;2024-03-23T03:37:23;11.55;;;8.40;;
71343;SDS011;59146;43.850;25.948;2024-03-23T03:39:49;13.80;;;8.25;;
71343;SDS011;59146;43.850;25.948;2024-03-23T03:42:14;13.30;;;8.32;;
71343;SDS011;59146;43.850;25.948;2024-03-23T03:44:40;14.35;;;7.78;;
71343;SDS011;59146;43.850;25.948;2024-03-23T03:47:06;12.73;;;8.40;;
71343;SDS011;59146;43.850;25.948;2024-03-23T03:49:31;11.27;;;8.00;;
71343;SDS011;59146;43.850;25.948;2024-03-23T03:51:57;11.00;;;7.43;;
71343;SDS011;59146;43.850;25.948;2024-03-23T03:54:23;13.05;;;7.72;;
71343;SDS011;59146;43.850;25.948;2024-03-23T03:56:48;11.40;;;7.05;;
71343;SDS011;59146;43.850;25.948;2024-03-23T03:59:14;12.60;;;8.07;;
71343;SDS011;59146;43.850;25.948;2024-03-23T04:01:40;12.38;;;8.57;;
71343;SDS011;59146;43.850;25.948;2024-03-23T04:04:05;11.70;;;7.95;;
71343;SDS011;59146;43.850;25.948;2024-03-23T04:06:31;11.85;;;7.72;;
71343;SDS011;59146;43.850;25.948;2024-03-23T04:08:58;10.32;;;7.22;;
71343;SDS011;59146;43.850;25.948;2024-03-23T04:11:24;10.65;;;7.75;;
71343;SDS011;59146;43.850;25.948;2024-03-23T04:13:49;11.48;;;8.15;;
71343;SDS011;59146;43.850;25.948;2024-03-23T04:16:28;11.32;;;7.75;;
71343;SDS011;59146;43.850;25.948;2024-03-23T04:18:54;9.88;;;7.32;;
71343;SDS011;59146;43.850;25.948;2024-03-23T04:21:20;12.10;;;7.45;;
71343;SDS011;59146;43.850;25.948;2024-03-23T04:23:46;11.80;;;7.95;;
71343;SDS011;59146;43.850;25.948;2024-03-23T04:26:12;11.38;;;7.85;;
71343;SDS011;59146;43.850;25.948;2024-03-23T04:28:37;12.05;;;8.18;;
71343;SDS011;59146;43.850;25.948;2024-03-23T04:31:03;11.00;;;7.80;;
71343;SDS011;59146;43.850;25.948;2024-03-23T04:33:29;11.32;;;7.68;;
71343;SDS011;59146;43.850;25.948;2024-03-23T04:35:55;13.63;;;8.40;;
71343;SDS011;59146;43.850;25.948;2024-03-23T04:38:20;14.25;;;8.82;;
71343;SDS011;59146;43.850;25.948;2024-03-23T04:40:53;12.57;;;7.38;;
71343;SDS011;59146;43.850;25.948;2024-03-23T04:43:20;13.25;;;8.20;;
71343;SDS011;59146;43.850;25.948;2024-03-23T04:45:45;14.60;;;7.80;;
71343;SDS011;59146;43.850;25.948;2024-03-23T04:48:11;15.43;;;7.28;;
71343;SDS011;59146;43.850;25.948;2024-03-23T04:50:36;10.10;;;7.32;;
71343;SDS011;59146;43.850;25.948;2024-03-23T04:53:02;10.77;;;7.32;;
71343;SDS011;59146;43.850;25.948;2024-03-23T04:55:27;9.63;;;7.35;;
71343;SDS011;59146;43.850;25.948;2024-03-23T04:57:53;10.18;;;6.88;;
71343;SDS011;59146;43.850;25.948;2024-03-23T05:00:19;9.48;;;7.32;;
71343;SDS011;59146;43.850;25.948;2024-03-23T05:02:44;10.80;;;7.95;;
71343;SDS011;59146;43.850;25.948;2024-03-23T05:05:10;13.10;;;7.63;;
71343;SDS011;59146;43.850;25.948;2024-03-23T05:07:36;10.80;;;7.47;;
71343;SDS011;59146;43.850;25.948;2024-03-23T05:10:02;12.18;;;8.07;;
71343;SDS011;59146;43.850;25.948;2024-03-23T05:12:28;12.00;;;8.18;;
71343;SDS011;59146;43.850;25.948;2024-03-23T05:14:54;11.85;;;7.18;;
71343;SDS011;59146;43.850;25.948;2024-03-23T05:17:19;8.90;;;7.35;;
71343;SDS011;59146;43.850;25.948;2024-03-23T05:19:45;15.13;;;7.35;;
71343;SDS011;59146;43.850;25.948;2024-03-23T05:22:10;9.32;;;7.18;;
71343;SDS011;59146;43.850;25.948;2024-03-23T05:24:36;10.38;;;7.25;;
71343;SDS011;59146;43.850;25.948;2024-03-23T05:27:01;9.60;;;7.65;;
71343;SDS011;59146;43.850;25.948;2024-03-23T05:29:27;11.70;;;7.22;;
71343;SDS011;59146;43.850;25.948;2024-03-23T05:31:54;11.32;;;7.05;;
71343;SDS011;59146;43.850;25.948;2024-03-23T05:34:22;10.00;;;7.03;;
71343;SDS011;59146;43.850;25.948;2024-03-23T05:36:47;12.05;;;7.57;;
71343;SDS011;59146;43.850;25.948;2024-03-23T05:39:14;13.25;;;7.65;;
71343;SDS011;59146;43.850;25.948;2024-03-23T05:41:41;9.63;;;7.53;;
71343;SDS011;59146;43.850;25.948;2024-03-23T05:44:07;10.27;;;7.55;;
71343;SDS011;59146;43.850;25.948;2024-03-23T05:46:33;9.85;;;7.60;;
71343;SDS011;59146;43.850;25.948;2024-03-23T05:49:00;12.85;;;7.50;;
71343;SDS011;59146;43.850;25.948;2024-03-23T05:51:27;14.00;;;7.72;;
71343;SDS011;59146;43.850;25.948;2024-03-23T05:53:53;15.38;;;9.20;;
71343;SDS011;59146;43.850;25.948;2024-03-23T05:56:19;11.90;;;8.10;;
71343;SDS011;59146;43.850;25.948;2024-03-23T05:58:45;9.07;;;7.53;;
71343;SDS011;59146;43.850;25.948;2024-03-23T06:01:11;10.13;;;7.80;;
71343;SDS011;59146;43.850;25.948;2024-03-23T06:03:37;12.43;;;8.73;;
71343;SDS011;59146;43.850;25.948;2024-03-23T06:06:03;12.38;;;8.40;;
71343;SDS011;59146;43.850;25.948;2024-03-23T06:08:29;17.45;;;8.50;;
71343;SDS011;59146;43.850;25.948;2024-03-23T06:10:55;11.27;;;8.02;;
71343;SDS011;59146;43.850;25.948;2024-03-23T06:13:20;16.42;;;9.55;;
71343;SDS011;59146;43.850;25.948;2024-03-23T06:15:50;11.27;;;8.18;;
71343;SDS011;59146;43.850;25.948;2024-03-23T06:18:15;12.98;;;8.27;;
71343;SDS011;59146;43.850;25.948;2024-03-23T06:20:41;13.15;;;7.90;;
71343;SDS011;59146;43.850;25.948;2024-03-23T06:23:06;13.60;;;8.27;;
71343;SDS011;59146;43.850;25.948;2024-03-23T06:25:32;18.02;;;10.07;;
71343;SDS011;59146;43.850;25.948;2024-03-23T06:27:58;12.45;;;7.78;;
71343;SDS011;59146;43.850;25.948;2024-03-23T06:30:23;11.02;;;7.63;;
71343;SDS011;59146;43.850;25.948;2024-03-23T06:32:49;10.63;;;7.35;;
71343;SDS011;59146;43.850;25.948;2024-03-23T06:35:15;13.82;;;8.38;;
71343;SDS011;59146;43.850;25.948;2024-03-23T06:37:40;12.00;;;7.90;;
71343;SDS011;59146;43.850;25.948;2024-03-23T06:40:06;11.55;;;7.65;;
71343;SDS011;59146;43.850;25.948;2024-03-23T06:42:34;12.15;;;8.23;;
71343;SDS011;59146;43.850;25.948;2024-03-23T06:45:01;12.45;;;7.97;;
71343;SDS011;59146;43.850;25.948;2024-03-23T06:47:26;14.43;;;7.97;;
71343;SDS011;59146;43.850;25.948;2024-03-23T06:49:52;16.67;;;9.15;;
71343;SDS011;59146;43.850;25.948;2024-03-23T06:52:17;13.48;;;8.27;;
71343;SDS011;59146;43.850;25.948;2024-03-23T06:54:43;11.07;;;8.13;;
71343;SDS011;59146;43.850;25.948;2024-03-23T06:57:10;12.27;;;7.78;;
71343;SDS011;59146;43.850;25.948;2024-03-23T06:59:37;12.85;;;8.70;;
71343;SDS011;59146;43.850;25.948;2024-03-23T07:02:03;14.13;;;8.00;;
71343;SDS011;59146;43.850;25.948;2024-03-23T07:04:29;11.45;;;7.80;;
71343;SDS011;59146;43.850;25.948;2024-03-23T07:06:55;11.32;;;8.48;;
71343;SDS011;59146;43.850;25.948;2024-03-23T07:09:20;12.15;;;8.90;;
71343;SDS011;59146;43.850;25.948;2024-03-23T07:11:50;15.07;;;9.45;;
71343;SDS011;59146;43.850;25.948;2024-03-23T07:14:15;13.02;;;9.23;;
71343;SDS011;59146;43.850;25.948;2024-03-23T07:16:41;10.77;;;8.35;;
71343;SDS011;59146;43.850;25.948;2024-03-23T07:19:06;13.88;;;8.70;;
71343;SDS011;59146;43.850;25.948;2024-03-23T07:21:32;9.57;;;7.47;;
71343;SDS011;59146;43.850;25.948;2024-03-23T07:23:57;13.10;;;7.53;;
71343;SDS011;59146;43.850;25.948;2024-03-23T07:26:23;11.18;;;7.63;;
71343;SDS011;59146;43.850;25.948;2024-03-23T07:28:48;10.65;;;6.75;;
71343;SDS011;59146;43.850;25.948;2024-03-23T07:31:14;17.00;;;8.45;;
71343;SDS011;59146;43.850;25.948;2024-03-23T07:33:43;9.75;;;7.88;;
71343;SDS011;59146;43.850;25.948;2024-03-23T07:36:12;11.40;;;8.20;;
71343;SDS011;59146;43.850;25.948;2024-03-23T07:38:41;11.18;;;7.40;;
71343;SDS011;59146;43.850;25.948;2024-03-23T07:41:11;10.88;;;7.45;;
71343;SDS011;59146;43.850;25.948;2024-03-23T07:43:39;11.38;;;8.05;;
71343;SDS011;59146;43.850;25.948;2024-03-23T07:46:08;9.80;;;7.55;;
71343;SDS011;59146;43.850;25.948;2024-03-23T07:48:34;7.72;;;6.70;;
71343;SDS011;59146;43.850;25.948;2024-03-23T07:51:09;9.70;;;7.78;;
71343;SDS011;59146;43.850;25.948;2024-03-23T07:53:37;11.43;;;7.45;;
71343;SDS011;59146;43.850;25.948;2024-03-23T07:56:06;10.75;;;6.70;;
71343;SDS011;59146;43.850;25.948;2024-03-23T07:58:33;7.70;;;6.07;;
71343;SDS011;59146;43.850;25.948;2024-03-23T08:01:09;16.58;;;7.47;;
71343;SDS011;59146;43.850;25.948;2024-03-23T08:03:37;12.10;;;9.07;;
71343;SDS011;59146;43.850;25.948;2024-03-23T08:06:07;7.60;;;6.30;;
71343;SDS011;59146;43.850;25.948;2024-03-23T08:08:36;8.98;;;7.10;;
71343;SDS011;59146;43.850;25.948;2024-03-23T08:11:01;9.55;;;7.38;;
71343;SDS011;59146;43.850;25.948;2024-03-23T08:13:27;10.10;;;6.95;;
71343;SDS011;59146;43.850;25.948;2024-03-23T08:15:59;7.75;;;6.68;;
71343;SDS011;59146;43.850;25.948;2024-03-23T08:18:26;15.98;;;6.88;;
71343;SDS011;59146;43.850;25.948;2024-03-23T08:20:58;9.55;;;6.20;;
71343;SDS011;59146;43.850;25.948;2024-03-23T08:23:25;8.65;;;6.40;;
71343;SDS011;59146;43.850;25.948;2024-03-23T08:25:51;8.35;;;6.40;;
71343;SDS011;59146;43.850;25.948;2024-03-23T08:28:17;10.77;;;6.03;;
71343;SDS011;59146;43.850;25.948;2024-03-23T08:30:43;5.57;;;4.97;;
71343;SDS011;59146;43.850;25.948;2024-03-23T08:33:08;11.98;;;5.25;;
71343;SDS011;59146;43.850;25.948;2024-03-23T08:35:34;7.78;;;5.20;;
71343;SDS011;59146;43.850;25.948;2024-03-23T08:38:00;9.50;;;5.15;;
71343;SDS011;59146;43.850;25.948;2024-03-23T08:40:25;7.22;;;5.40;;
71343;SDS011;59146;43.850;25.948;2024-03-23T08:42:54;10.10;;;4.55;;
71343;SDS011;59146;43.850;25.948;2024-03-23T08:45:19;6.70;;;4.88;;
71343;SDS011;59146;43.850;25.948;2024-03-23T08:47:45;11.90;;;5.38;;
71343;SDS011;59146;43.850;25.948;2024-03-23T08:50:10;7.38;;;5.80;;
71343;SDS011;59146;43.850;25.948;2024-03-23T08:52:36;10.93;;;6.18;;
71343;SDS011;59146;43.850;25.948;2024-03-23T08:55:01;10.55;;;6.50;;
71343;SDS011;59146;43.850;25.948;2024-03-23T08:57:27;8.00;;;6.68;;
71343;SDS011;59146;43.850;25.948;2024-03-23T08:59:52;12.23;;;6.47;;
71343;SDS011;59146;43.850;25.948;2024-03-23T09:02:18;10.10;;;6.30;;
71343;SDS011;59146;43.850;25.948;2024-03-23T09:04:44;9.38;;;6.13;;
71343;SDS011;59146;43.850;25.948;2024-03-23T09:07:10;9.15;;;7.13;;
71343;SDS011;59146;43.850;25.948;2024-03-23T09:09:37;8.95;;;6.68;;
71343;SDS011;59146;43.850;25.948;2024-03-23T09:12:04;10.95;;;6.25;;
71343;SDS011;59146;43.850;25.948;2024-03-23T09:14:30;6.45;;;5.72;;
71343;SDS011;59146;43.850;25.948;2024-03-23T09:16:55;9.77;;;5.80;;
71343;SDS011;59146;43.850;25.948;2024-03-23T09:19:21;6.30;;;4.88;;
71343;SDS011;59146;43.850;25.948;2024-03-23T09:21:46;6.43;;;4.07;;
71343;SDS011;59146;43.850;25.948;2024-03-23T09:24:12;5.95;;;3.88;;
71343;SDS011;59146;43.850;25.948;2024-03-23T09:26:37;7.20;;;4.90;;
71343;SDS011;59146;43.850;25.948;2024-03-23T09:29:03;4.25;;;3.67;;
71343;SDS011;59146;43.850;25.948;2024-03-23T09:31:29;5.95;;;3.88;;
71343;SDS011;59146;43.850;25.948;2024-03-23T09:33:56;5.47;;;3.95;;
71343;SDS011;59146;43.850;25.948;2024-03-23T09:36:23;6.18;;;3.78;;
71343;SDS011;59146;43.850;25.948;2024-03-23T09:38:48;10.57;;;4.25;;
71343;SDS011;59146;43.850;25.948;2024-03-23T09:41:14;7.90;;;3.60;;
71343;SDS011;59146;43.850;25.948;2024-03-23T09:43:40;4.93;;;4.18;;
71343;SDS011;59146;43.850;25.948;2024-03-23T09:46:05;5.55;;;3.90;;
71343;SDS011;59146;43.850;25.948;2024-03-23T09:48:32;4.82;;;3.53;;
71343;SDS011;59146;43.850;25.948;2024-03-23T09:50:58;6.63;;;3.88;;
71343;SDS011;59146;43.850;25.948;2024-03-23T09:53:24;5.82;;;3.95;;
71343;SDS011;59146;43.850;25.948;2024-03-23T09:55:49;10.77;;;4.07;;
71343;SDS011;59146;43.850;25.948;2024-03-23T09:58:16;6.68;;;3.78;;
71343;SDS011;59146;43.850;25.948;2024-03-23T10:00:42;7.03;;;3.63;;
71343;SDS011;59146;43.850;25.948;2024-03-23T10:03:08;6.90;;;4.20;;
71343;SDS011;59146;43.850;25.948;2024-03-23T10:05:36;8.88;;;4.13;;
71343;SDS011;59146;43.850;25.948;2024-03-23T10:10:40;5.65;;;4.32;;
71343;SDS011;59146;43.850;25.948;2024-03-23T10:13:09;6.88;;;4.40;;
71343;SDS011;59146;43.850;25.948;2024-03-23T10:15:35;5.80;;;3.88;;
71343;SDS011;59146;43.850;25.948;2024-03-23T10:18:17;7.22;;;4.10;;
71343;SDS011;59146;43.850;25.948;2024-03-23T10:20:47;7.05;;;4.80;;
71343;SDS011;59146;43.850;25.948;2024-03-23T10:23:17;9.27;;;4.30;;
71343;SDS011;59146;43.850;25.948;2024-03-23T10:25:43;6.10;;;4.55;;
71343;SDS011;59146;43.850;25.948;2024-03-23T10:28:09;5.18;;;4.00;;
71343;SDS011;59146;43.850;25.948;2024-03-23T10:30:36;9.65;;;3.45;;
71343;SDS011;59146;43.850;25.948;2024-03-23T10:33:08;5.32;;;3.70;;
71343;SDS011;59146;43.850;25.948;2024-03-23T10:35:34;10.65;;;4.32;;
71343;SDS011;59146;43.850;25.948;2024-03-23T10:38:02;9.43;;;4.45;;
71343;SDS011;59146;43.850;25.948;2024-03-23T10:40:31;8.77;;;4.80;;
71343;SDS011;59146;43.850;25.948;2024-03-23T10:42:57;5.72;;;4.22;;
71343;SDS011;59146;43.850;25.948;2024-03-23T10:45:23;5.95;;;4.28;;
71343;SDS011;59146;43.850;25.948;2024-03-23T10:47:49;5.40;;;4.28;;
71343;SDS011;59146;43.850;25.948;2024-03-23T10:50:15;7.05;;;4.35;;
71343;SDS011;59146;43.850;25.948;2024-03-23T10:52:41;7.80;;;6.00;;
71343;SDS011;59146;43.850;25.948;2024-03-23T10:55:12;8.68;;;4.38;;
71343;SDS011;59146;43.850;25.948;2024-03-23T10:57:44;5.03;;;3.78;;
71343;SDS011;59146;43.850;25.948;2024-03-23T11:00:19;5.45;;;3.67;;
71343;SDS011;59146;43.850;25.948;2024-03-23T11:02:47;7.50;;;3.30;;
71343;SDS011;59146;43.850;25.948;2024-03-23T11:07:51;4.95;;;3.50;;
71343;SDS011;59146;43.850;25.948;2024-03-23T11:10:30;4.28;;;3.88;;
71343;SDS011;59146;43.850;25.948;2024-03-23T11:12:58;7.27;;;4.03;;
71343;SDS011;59146;43.850;25.948;2024-03-23T11:15:44;7.22;;;4.38;;
71343;SDS011;59146;43.850;25.948;2024-03-23T11:18:09;6.95;;;4.28;;
71343;SDS011;59146;43.850;25.948;2024-03-23T11:20:36;5.68;;;3.58;;
71343;SDS011;59146;43.850;25.948;2024-03-23T11:23:01;4.78;;;3.88;;
71343;SDS011;59146;43.850;25.948;2024-03-23T11:25:28;5.57;;;3.70;;
71343;SDS011;59146;43.850;25.948;2024-03-23T11:27:57;7.22;;;4.13;;
71343;SDS011;59146;43.850;25.948;2024-03-23T11:30:34;4.73;;;3.63;;
71343;SDS011;59146;43.850;25.948;2024-03-23T11:33:00;6.15;;;3.70;;
71343;SDS011;59146;43.850;25.948;2024-03-23T11:35:28;6.68;;;4.07;;
71343;SDS011;59146;43.850;25.948;2024-03-23T11:38:17;7.75;;;4.13;;
71343;SDS011;59146;43.850;25.948;2024-03-23T11:40:47;6.78;;;4.40;;
71343;SDS011;59146;43.850;25.948;2024-03-23T11:43:17;6.40;;;4.85;;
71343;SDS011;59146;43.850;25.948;2024-03-23T11:48:11;7.80;;;4.22;;
71343;SDS011;59146;43.850;25.948;2024-03-23T11:50:45;4.30;;;3.50;;
71343;SDS011;59146;43.850;25.948;2024-03-23T11:58:25;7.70;;;4.68;;
71343;SDS011;59146;43.850;25.948;2024-03-23T12:03:28;14.32;;;4.07;;
71343;SDS011;59146;43.850;25.948;2024-03-23T12:05:55;7.03;;;4.00;;
71343;SDS011;59146;43.850;25.948;2024-03-23T12:08:23;7.93;;;3.67;;
71343;SDS011;59146;43.850;25.948;2024-03-23T12:10:51;6.63;;;4.30;;
71343;SDS011;59146;43.850;25.948;2024-03-23T12:13:18;6.10;;;4.60;;
71343;SDS011;59146;43.850;25.948;2024-03-23T12:15:47;6.35;;;4.65;;
71343;SDS011;59146;43.850;25.948;2024-03-23T12:18:14;7.75;;;4.15;;
71343;SDS011;59146;43.850;25.948;2024-03-23T12:20:40;8.50;;;3.83;;
71343;SDS011;59146;43.850;25.948;2024-03-23T12:23:10;5.68;;;3.70;;
71343;SDS011;59146;43.850;25.948;2024-03-23T12:25:37;7.57;;;3.70;;
71343;SDS011;59146;43.850;25.948;2024-03-23T12:28:05;7.03;;;3.95;;
71343;SDS011;59146;43.850;25.948;2024-03-23T12:30:32;5.45;;;4.13;;
71343;SDS011;59146;43.850;25.948;2024-03-23T12:32:59;4.40;;;3.80;;
71343;SDS011;59146;43.850;25.948;2024-03-23T12:35:24;6.45;;;4.25;;
71343;SDS011;59146;43.850;25.948;2024-03-23T12:37:50;5.85;;;3.75;;
71343;SDS011;59146;43.850;25.948;2024-03-23T12:40:15;5.35;;;4.43;;
71343;SDS011;59146;43.850;25.948;2024-03-23T12:42:41;6.40;;;3.83;;
71343;SDS011;59146;43.850;25.948;2024-03-23T12:45:07;4.63;;;4.03;;
71343;SDS011;59146;43.850;25.948;2024-03-23T12:47:33;7.85;;;4.28;;
71343;SDS011;59146;43.850;25.948;2024-03-23T12:49:58;7.68;;;4.13;;
71343;SDS011;59146;43.850;25.948;2024-03-23T12:52:24;5.15;;;3.85;;
71343;SDS011;59146;43.850;25.948;2024-03-23T12:54:54;8.38;;;3.67;;
71343;SDS011;59146;43.850;25.948;2024-03-23T12:57:21;5.82;;;3.97;;
71343;SDS011;59146;43.850;25.948;2024-03-23T12:59:50;10.25;;;3.90;;
71343;SDS011;59146;43.850;25.948;2024-03-23T13:02:20;14.40;;;4.63;;
71343;SDS011;59146;43.850;25.948;2024-03-23T13:04:46;10.95;;;3.92;;
71343;SDS011;59146;43.850;25.948;2024-03-23T13:07:14;5.43;;;3.78;;
71343;SDS011;59146;43.850;25.948;2024-03-23T13:09:40;6.38;;;4.22;;
71343;SDS011;59146;43.850;25.948;2024-03-23T13:12:06;12.23;;;4.57;;
71343;SDS011;59146;43.850;25.948;2024-03-23T13:14:32;6.18;;;4.57;;
71343;SDS011;59146;43.850;25.948;2024-03-23T13:16:57;7.15;;;4.30;;
71343;SDS011;59146;43.850;25.948;2024-03-23T13:19:23;5.80;;;4.13;;
71343;SDS011;59146;43.850;25.948;2024-03-23T13:21:53;4.47;;;3.80;;
71343;SDS011;59146;43.850;25.948;2024-03-23T13:24:23;5.63;;;4.38;;
71343;SDS011;59146;43.850;25.948;2024-03-23T13:26:50;9.73;;;4.10;;
71343;SDS011;59146;43.850;25.948;2024-03-23T13:29:16;6.20;;;4.10;;
71343;SDS011;59146;43.850;25.948;2024-03-23T13:31:42;4.80;;;3.65;;
71343;SDS011;59146;43.850;25.948;2024-03-23T13:34:08;4.97;;;4.22;;
71343;SDS011;59146;43.850;25.948;2024-03-23T13:36:33;6.05;;;3.92;;
71343;SDS011;59146;43.850;25.948;2024-03-23T13:38:59;6.65;;;3.85;;
71343;SDS011;59146;43.850;25.948;2024-03-23T13:41:24;8.00;;;4.20;;
71343;SDS011;59146;43.850;25.948;2024-03-23T13:43:50;7.22;;;4.40;;
71343;SDS011;59146;43.850;25.948;2024-03-23T13:46:16;10.23;;;5.43;;
71343;SDS011;59146;43.850;25.948;2024-03-23T13:48:41;5.75;;;4.28;;
71343;SDS011;59146;43.850;25.948;2024-03-23T13:51:07;6.03;;;4.00;;
71343;SDS011;59146;43.850;25.948;2024-03-23T13:53:32;7.38;;;4.03;;
71343;SDS011;59146;43.850;25.948;2024-03-23T13:55:58;6.05;;;4.00;;
71343;SDS011;59146;43.850;25.948;2024-03-23T13:58:24;5.07;;;3.78;;
71343;SDS011;59146;43.850;25.948;2024-03-23T14:00:50;5.72;;;4.15;;
71343;SDS011;59146;43.850;25.948;2024-03-23T14:03:16;7.45;;;4.18;;
71343;SDS011;59146;43.850;25.948;2024-03-23T14:05:45;8.10;;;4.43;;
71343;SDS011;59146;43.850;25.948;2024-03-23T14:08:14;5.82;;;3.65;;
71343;SDS011;59146;43.850;25.948;2024-03-23T14:10:40;6.57;;;3.95;;
71343;SDS011;59146;43.850;25.948;2024-03-23T14:13:06;4.97;;;3.78;;
71343;SDS011;59146;43.850;25.948;2024-03-23T14:15:32;8.25;;;4.20;;
71343;SDS011;59146;43.850;25.948;2024-03-23T14:17:58;5.50;;;3.70;;
71343;SDS011;59146;43.850;25.948;2024-03-23T14:20:24;8.57;;;4.40;;
71343;SDS011;59146;43.850;25.948;2024-03-23T14:22:51;5.13;;;3.80;;
71343;SDS011;59146;43.850;25.948;2024-03-23T14:25:17;11.70;;;3.83;;
71343;SDS011;59146;43.850;25.948;2024-03-23T14:27:46;9.13;;;4.07;;
71343;SDS011;59146;43.850;25.948;2024-03-23T14:30:12;5.93;;;4.07;;
71343;SDS011;59146;43.850;25.948;2024-03-23T14:32:39;6.28;;;4.30;;
71343;SDS011;59146;43.850;25.948;2024-03-23T14:35:04;4.85;;;4.00;;
71343;SDS011;59146;43.850;25.948;2024-03-23T14:37:36;4.80;;;3.65;;
71343;SDS011;59146;43.850;25.948;2024-03-23T14:40:02;4.45;;;3.72;;
71343;SDS011;59146;43.850;25.948;2024-03-23T14:42:28;4.05;;;3.58;;
71343;SDS011;59146;43.850;25.948;2024-03-23T14:44:54;5.40;;;3.72;;
71343;SDS011;59146;43.850;25.948;2024-03-23T14:47:19;5.38;;;3.65;;
71343;SDS011;59146;43.850;25.948;2024-03-23T14:49:46;6.32;;;3.80;;
71343;SDS011;59146;43.850;25.948;2024-03-23T14:52:16;9.25;;;4.25;;
71343;SDS011;59146;43.850;25.948;2024-03-23T14:54:42;9.40;;;4.15;;
71343;SDS011;59146;43.850;25.948;2024-03-23T14:57:07;5.82;;;4.32;;
71343;SDS011;59146;43.850;25.948;2024-03-23T14:59:34;5.50;;;4.00;;
71343;SDS011;59146;43.850;25.948;2024-03-23T15:02:00;4.35;;;3.50;;
71343;SDS011;59146;43.850;25.948;2024-03-23T15:04:26;5.75;;;3.83;;
71343;SDS011;59146;43.850;25.948;2024-03-23T15:06:51;4.40;;;3.50;;
71343;SDS011;59146;43.850;25.948;2024-03-23T15:09:17;7.20;;;3.78;;
71343;SDS011;59146;43.850;25.948;2024-03-23T15:11:43;5.25;;;3.47;;
71343;SDS011;59146;43.850;25.948;2024-03-23T15:14:09;4.20;;;3.75;;
71343;SDS011;59146;43.850;25.948;2024-03-23T15:16:35;5.75;;;3.85;;
71343;SDS011;59146;43.850;25.948;2024-03-23T15:19:01;4.97;;;3.60;;
71343;SDS011;59146;43.850;25.948;2024-03-23T15:21:27;4.72;;;3.63;;
71343;SDS011;59146;43.850;25.948;2024-03-23T15:23:52;4.13;;;3.55;;
71343;SDS011;59146;43.850;25.948;2024-03-23T15:26:18;4.30;;;3.83;;
71343;SDS011;59146;43.850;25.948;2024-03-23T15:28:47;5.93;;;3.25;;
71343;SDS011;59146;43.850;25.948;2024-03-23T15:31:35;8.13;;;3.72;;
71343;SDS011;59146;43.850;25.948;2024-03-23T15:34:01;5.72;;;3.70;;
71343;SDS011;59146;43.850;25.948;2024-03-23T15:36:27;6.93;;;4.05;;